Time;durP1;ratioP1;P1;durP2;ratioP2;P2;SDS_P1;SDS_P2;PMS_P1;PMS_P2;Temp;Humidity;BMP_temperature;BMP_pressure;BME280_temperature;BME280_humidity;BME280_pressure;Samples;Min_cycle;Max_cycle;Signal;HPM_P1;HPM_P2
2022/06/29 00:02:18;;;;;;;2.90;2.60;;;21.10;99.90;;;;;;5098038;28;20453;-54
2022/06/29 00:04:44;;;;;;;2.90;2.17;;;21.00;99.90;;;;;;5097908;28;20460;-48
2022/06/29 00:07:12;;;;;;;2.47;2.00;;;20.90;99.90;;;;;;5097626;28;20492;-56
2022/06/29 00:09:47;;;;;;;2.30;2.10;;;20.90;99.90;;;;;;5097070;28;20466;-43
2022/06/29 00:12:16;;;;;;;2.50;2.00;;;20.90;99.90;;;;;;5095440;28;20427;-42
2022/06/29 00:14:45;;;;;;;2.80;2.60;;;20.90;99.90;;;;;;5095813;28;20462;-49
2022/06/29 00:17:12;;;;;;;2.50;2.30;;;20.80;99.90;;;;;;5096697;28;20439;-38
2022/06/29 00:19:40;;;;;;;3.60;2.60;;;20.80;99.90;;;;;;5090050;28;20438;-56
2022/06/29 00:22:08;;;;;;;2.83;2.53;;;20.70;99.90;;;;;;5094601;28;20421;-48
2022/06/29 00:24:37;;;;;;;3.60;2.80;;;20.70;99.90;;;;;;5096699;28;20457;-48
2022/06/29 00:27:08;;;;;;;2.70;2.47;;;20.70;99.90;;;;;;5096661;28;20509;-50
2022/06/29 00:29:35;;;;;;;2.73;1.97;;;20.70;99.90;;;;;;5097756;28;20423;-44
2022/06/29 00:32:03;;;;;;;4.90;2.00;;;20.70;99.90;;;;;;5096837;28;20482;-48
2022/06/29 00:34:30;;;;;;;3.23;2.23;;;20.70;99.90;;;;;;5096832;28;20462;-46
2022/06/29 00:36:57;;;;;;;3.47;2.83;;;20.70;99.90;;;;;;5096872;28;20438;-48
2022/06/29 00:39:24;;;;;;;2.43;2.07;;;20.60;99.90;;;;;;5096454;28;20439;-52
2022/06/29 00:41:53;;;;;;;6.03;2.40;;;20.60;99.90;;;;;;5088166;28;20454;-48
2022/06/29 00:44:21;;;;;;;2.90;2.60;;;20.60;99.90;;;;;;5097309;28;20531;-50
2022/06/29 00:46:49;;;;;;;5.73;2.90;;;20.60;99.90;;;;;;5096372;28;20474;-51
2022/06/29 00:49:17;;;;;;;11.13;5.17;;;20.60;99.90;;;;;;5097105;28;20470;-48
2022/06/29 00:51:46;;;;;;;3.37;3.07;;;20.50;99.90;;;;;;5089245;28;20494;-47
2022/06/29 00:54:16;;;;;;;2.03;1.70;;;20.50;99.90;;;;;;5095781;28;20518;-49
2022/06/29 00:56:44;;;;;;;13.77;7.60;;;20.50;99.90;;;;;;5095270;28;20446;-51
2022/06/29 00:59:16;;;;;;;2.57;2.37;;;20.50;99.90;;;;;;5096883;28;20448;-46
2022/06/29 01:01:43;;;;;;;3.10;2.73;;;20.50;99.90;;;;;;5096342;28;20467;-52
2022/06/29 01:04:10;;;;;;;2.43;2.23;;;20.50;99.90;;;;;;5095722;28;20446;-51
2022/06/29 01:06:38;;;;;;;3.10;2.37;;;20.50;99.90;;;;;;5096252;28;20606;-48
2022/06/29 01:09:05;;;;;;;4.17;2.67;;;20.50;99.90;;;;;;5095990;28;20465;-47
2022/06/29 01:11:32;;;;;;;2.60;2.40;;;20.60;99.90;;;;;;5096312;28;20470;-51
2022/06/29 01:13:59;;;;;;;6.60;2.40;;;20.50;99.90;;;;;;5096025;28;20434;-49
2022/06/29 01:16:28;;;;;;;3.93;2.30;;;20.50;99.90;;;;;;5094569;28;20473;-59
2022/06/29 01:18:55;;;;;;;3.40;2.70;;;20.50;99.90;;;;;;5086374;28;20430;-53
2022/06/29 01:21:23;;;;;;;4.77;2.40;;;20.50;99.90;;;;;;5095387;28;20423;-49
2022/06/29 01:23:51;;;;;;;3.17;2.07;;;20.50;99.90;;;;;;5095503;28;20464;-46
2022/06/29 01:26:18;;;;;;;3.37;2.23;;;20.50;99.90;;;;;;5094927;28;20458;-48
2022/06/29 01:28:46;;;;;;;2.60;2.40;;;20.50;99.90;;;;;;5095525;28;20659;-46
2022/06/29 01:31:17;;;;;;;4.17;3.77;;;20.50;99.90;;;;;;5095553;28;20492;-50
2022/06/29 01:33:44;;;;;;;3.03;2.20;;;20.50;99.90;;;;;;5087887;28;20458;-51
2022/06/29 01:36:12;;;;;;;3.20;2.90;;;20.40;99.90;;;;;;5096344;28;20518;-42
2022/06/29 01:38:39;;;;;;;2.53;2.33;;;20.40;99.90;;;;;;5096049;28;20427;-47
2022/06/29 01:41:10;;;;;;;2.43;2.20;;;20.40;99.90;;;;;;5095178;28;20457;-44
2022/06/29 01:43:37;;;;;;;3.30;3.00;;;20.30;99.90;;;;;;5095178;28;20431;-50
2022/06/29 01:46:04;;;;;;;2.40;2.03;;;20.30;99.90;;;;;;5094954;28;20466;-49
2022/06/29 01:48:38;;;;;;;3.50;2.30;;;20.30;99.90;;;;;;5095362;28;20498;-52
2022/06/29 01:51:05;;;;;;;3.70;2.77;;;20.30;99.90;;;;;;5095355;28;20454;-49
2022/06/29 01:53:34;;;;;;;2.97;2.67;;;20.30;99.90;;;;;;5095448;28;20468;-48
2022/06/29 01:56:01;;;;;;;3.97;2.20;;;20.20;99.90;;;;;;5094825;28;20455;-45
2022/06/29 01:58:29;;;;;;;2.93;2.30;;;20.30;99.90;;;;;;5085297;28;20946;-48
2022/06/29 02:00:55;;;;;;;3.40;2.50;;;20.30;99.90;;;;;;5095133;28;20462;-50
2022/06/29 02:03:22;;;;;;;3.30;2.50;;;20.30;99.90;;;;;;5095057;28;20506;-56
2022/06/29 02:05:49;;;;;;;3.30;2.70;;;20.20;99.90;;;;;;5097064;28;20545;-49
2022/06/29 02:08:16;;;;;;;6.03;2.83;;;20.20;99.90;;;;;;5096407;28;20509;-51
2022/06/29 02:10:45;;;;;;;4.07;2.37;;;20.20;99.90;;;;;;5095016;28;20527;-46
2022/06/29 02:13:12;;;;;;;2.83;2.47;;;20.20;99.90;;;;;;5095264;28;20458;-47
2022/06/29 02:15:40;;;;;;;2.60;2.40;;;20.20;99.90;;;;;;5095676;28;20424;-43
2022/06/29 02:18:09;;;;;;;2.43;2.07;;;20.10;99.90;;;;;;5094686;28;20438;-52
2022/06/29 02:20:39;;;;;;;2.83;2.63;;;20.00;99.90;;;;;;5094582;28;20494;-50
2022/06/29 02:23:06;;;;;;;2.70;2.33;;;20.00;99.90;;;;;;5094877;28;20557;-45
2022/06/29 02:25:33;;;;;;;2.63;2.40;;;19.90;99.90;;;;;;5094807;28;20502;-51
2022/06/29 02:27:59;;;;;;;2.17;1.97;;;19.90;99.90;;;;;;5094604;28;20466;-47
2022/06/29 02:35:53;;;;;;;4.90;2.73;;;19.70;99.90;;;;;;5094391;28;20424;-44
2022/06/29 02:38:23;;;;;;;2.77;2.33;;;19.60;99.90;;;;;;5094837;28;20466;-42
2022/06/29 02:40:50;;;;;;;5.20;2.33;;;19.60;99.90;;;;;;5094005;28;20435;-49
2022/06/29 02:43:16;;;;;;;2.73;2.50;;;19.60;99.90;;;;;;5094233;28;20478;-47
2022/06/29 02:45:43;;;;;;;3.00;2.80;;;19.60;99.90;;;;;;5094897;28;20478;-43
2022/06/29 02:48:12;;;;;;;2.80;2.60;;;19.60;99.90;;;;;;5094159;28;20462;-53
2022/06/29 02:50:38;;;;;;;2.90;2.10;;;19.60;99.90;;;;;;5094778;28;20494;-50
2022/06/29 02:53:14;;;;;;;2.43;2.23;;;19.50;99.90;;;;;;5095575;28;20474;-51
2022/06/29 02:55:40;;;;;;;5.07;3.10;;;19.50;99.90;;;;;;5094342;28;20469;-55
2022/06/29 02:58:07;;;;;;;2.73;2.40;;;19.40;99.90;;;;;;5094438;28;20469;-48
2022/06/29 03:00:34;;;;;;;4.90;2.90;;;19.40;99.90;;;;;;5094514;28;20503;-48
2022/06/29 03:03:01;;;;;;;2.97;2.20;;;19.40;99.90;;;;;;5086252;28;20450;-48
2022/06/29 03:05:29;;;;;;;3.10;2.23;;;19.40;99.90;;;;;;5092111;28;20510;-54
2022/06/29 03:07:59;;;;;;;3.20;2.63;;;19.40;99.90;;;;;;5087053;28;20591;-54
2022/06/29 03:10:26;;;;;;;3.10;2.60;;;19.40;99.90;;;;;;5092638;28;20484;-52
2022/06/29 03:12:52;;;;;;;3.43;2.60;;;19.40;99.90;;;;;;5092495;28;20455;-57
2022/06/29 03:15:19;;;;;;;2.60;2.40;;;19.50;99.90;;;;;;5093379;28;20498;-54
2022/06/29 03:17:49;;;;;;;3.07;2.80;;;19.50;99.90;;;;;;5093151;28;20502;-52
2022/06/29 03:20:16;;;;;;;2.70;2.50;;;19.50;99.90;;;;;;5090254;28;20450;-49
2022/06/29 03:22:46;;;;;;;3.70;3.40;;;19.40;99.90;;;;;;5096148;28;20465;-51
2022/06/29 03:25:12;;;;;;;4.10;2.40;;;19.40;99.90;;;;;;5097505;28;20461;-56
2022/06/29 03:27:39;;;;;;;3.03;2.73;;;19.40;99.90;;;;;;5094248;28;20500;-51
2022/06/29 03:30:07;;;;;;;2.87;2.60;;;19.40;99.90;;;;;;5092406;28;20534;-49
2022/06/29 03:32:34;;;;;;;3.73;2.80;;;19.40;99.90;;;;;;5092294;28;20470;-52
2022/06/29 03:35:00;;;;;;;2.57;2.20;;;19.40;99.90;;;;;;5090950;28;20527;-47
2022/06/29 03:37:27;;;;;;;3.57;2.60;;;19.40;99.90;;;;;;5093889;28;20447;-57
2022/06/29 03:39:56;;;;;;;3.57;2.80;;;19.40;99.90;;;;;;5091016;28;20462;-53
2022/06/29 03:42:26;;;;;;;2.57;2.30;;;19.40;99.90;;;;;;5092288;28;20489;-56
2022/06/29 03:44:54;;;;;;;5.40;2.53;;;19.40;99.90;;;;;;5088766;28;20514;-54
2022/06/29 03:47:21;;;;;;;2.50;2.30;;;19.40;99.90;;;;;;5091475;28;20462;-48
2022/06/29 03:49:48;;;;;;;3.63;2.30;;;19.40;99.90;;;;;;5092911;28;20540;-53
2022/06/29 03:52:17;;;;;;;2.57;2.27;;;19.40;99.90;;;;;;5090853;28;20466;-55
2022/06/29 03:54:44;;;;;;;3.00;2.50;;;19.50;99.90;;;;;;5096000;28;20530;-50
2022/06/29 03:57:14;;;;;;;2.97;2.47;;;19.50;99.90;;;;;;5094888;28;20442;-48
2022/06/29 03:59:41;;;;;;;2.93;2.20;;;19.60;99.90;;;;;;5092745;28;20483;-54
2022/06/29 04:02:08;;;;;;;2.60;2.40;;;19.60;99.90;;;;;;5091458;28;20502;-55
2022/06/29 04:04:35;;;;;;;2.80;2.47;;;19.60;99.90;;;;;;5091829;28;21029;-56
2022/06/29 04:07:02;;;;;;;2.50;2.30;;;19.70;99.90;;;;;;5091751;28;20470;-58
2022/06/29 04:09:29;;;;;;;2.87;2.67;;;19.70;99.90;;;;;;5087351;28;20474;-55
2022/06/29 04:11:58;;;;;;;3.60;2.80;;;19.80;99.90;;;;;;5087889;28;20484;-58
2022/06/29 04:14:30;;;;;;;2.70;2.40;;;19.80;99.90;;;;;;5094201;28;20470;-50
2022/06/29 04:16:58;;;;;;;3.60;2.77;;;19.90;99.90;;;;;;5094290;28;20430;-48
2022/06/29 04:19:32;;;;;;;2.70;2.40;;;20.00;99.90;;;;;;5094727;28;20419;-53
2022/06/29 04:21:59;;;;;;;2.90;2.43;;;20.20;99.90;;;;;;5095618;28;20495;-54
2022/06/29 04:24:26;;;;;;;7.03;2.43;;;20.20;99.90;;;;;;5097065;28;20438;-44
2022/06/29 04:26:53;;;;;;;2.80;2.40;;;20.40;99.90;;;;;;5096652;28;20450;-50
2022/06/29 04:29:19;;;;;;;2.50;2.30;;;20.50;99.90;;;;;;5097237;28;20486;-55
2022/06/29 04:31:47;;;;;;;6.73;2.83;;;20.70;99.90;;;;;;5097738;28;20510;-47
2022/06/29 04:34:14;;;;;;;2.50;2.20;;;20.70;99.90;;;;;;5097688;28;20459;-53
2022/06/29 04:36:41;;;;;;;3.17;1.90;;;20.70;99.90;;;;;;5097062;28;20478;-47
2022/06/29 04:39:08;;;;;;;3.20;2.23;;;20.70;99.90;;;;;;5095868;28;20509;-55
2022/06/29 04:41:35;;;;;;;2.80;2.47;;;20.70;99.90;;;;;;5095764;28;20445;-53
2022/06/29 04:44:02;;;;;;;2.57;2.37;;;20.80;99.90;;;;;;5095197;28;20454;-54
2022/06/29 04:46:29;;;;;;;2.27;2.07;;;20.70;99.90;;;;;;5096233;28;20458;-50
2022/06/29 04:48:59;;;;;;;2.53;2.30;;;20.80;99.90;;;;;;5095722;28;20546;-52
2022/06/29 04:51:27;;;;;;;3.43;2.30;;;20.70;99.90;;;;;;5096264;28;20477;-42
2022/06/29 04:53:55;;;;;;;2.83;2.53;;;20.70;99.90;;;;;;5095608;28;20510;-43
2022/06/29 04:56:24;;;;;;;3.70;2.20;;;20.80;99.90;;;;;;5096953;28;20498;-49
2022/06/29 04:58:53;;;;;;;4.03;2.80;;;20.80;99.90;;;;;;5096947;28;20427;-51
2022/06/29 05:01:20;;;;;;;3.20;2.87;;;20.80;99.90;;;;;;5096355;28;20436;-47
2022/06/29 05:03:47;;;;;;;2.73;2.53;;;20.80;99.90;;;;;;5095971;28;20502;-54
2022/06/29 05:06:18;;;;;;;2.70;2.30;;;20.80;99.90;;;;;;5096244;28;20498;-53
2022/06/29 05:08:44;;;;;;;3.20;2.50;;;20.80;99.90;;;;;;5085924;28;20496;-44
2022/06/29 05:11:13;;;;;;;2.60;2.30;;;20.90;99.90;;;;;;5096058;28;20450;-42
2022/06/29 05:13:40;;;;;;;5.50;2.78;;;20.90;99.90;;;;;;5095246;28;20446;-49
2022/06/29 05:16:07;;;;;;;4.90;1.73;;;21.00;99.90;;;;;;5095156;28;20211;-50
2022/06/29 05:18:35;;;;;;;3.10;2.50;;;21.10;99.90;;;;;;5088668;28;20439;-50
2022/06/29 05:21:02;;;;;;;4.50;2.50;;;21.20;99.90;;;;;;5088651;28;20521;-50
2022/06/29 05:23:30;;;;;;;2.57;2.37;;;21.20;99.90;;;;;;5095728;28;20470;-48
2022/06/29 05:25:58;;;;;;;3.90;2.20;;;21.30;99.90;;;;;;5094690;28;20490;-52
2022/06/29 05:28:25;;;;;;;5.03;2.50;;;21.30;99.90;;;;;;5095241;28;20546;-51
2022/06/29 05:30:52;;;;;;;2.50;2.30;;;21.30;99.90;;;;;;5090520;28;20819;-60
2022/06/29 05:33:20;;;;;;;2.43;2.23;;;21.40;99.90;;;;;;5093989;28;20442;-57
2022/06/29 05:35:48;;;;;;;3.00;2.70;;;21.50;99.90;;;;;;5096278;28;20444;-53
2022/06/29 05:38:15;;;;;;;7.70;2.07;;;21.50;99.90;;;;;;5096532;28;20474;-54
2022/06/29 05:40:44;;;;;;;3.23;2.40;;;21.60;99.90;;;;;;5096169;28;20444;-52
2022/06/29 05:43:11;;;;;;;2.77;2.37;;;21.60;99.90;;;;;;5088081;28;20465;-54
2022/06/29 05:45:38;;;;;;;5.20;2.37;;;21.70;99.90;;;;;;5095964;28;20450;-46
2022/06/29 05:48:05;;;;;;;3.77;3.47;;;21.70;99.90;;;;;;5095356;28;20507;-51
2022/06/29 05:50:32;;;;;;;4.30;2.80;;;21.80;99.90;;;;;;5095777;28;20481;-44
2022/06/29 05:52:59;;;;;;;2.50;2.30;;;21.80;99.90;;;;;;5095067;28;20442;-52
2022/06/29 05:55:26;;;;;;;2.30;2.10;;;21.90;99.90;;;;;;5095427;28;20417;-48
2022/06/29 05:57:54;;;;;;;3.65;2.40;;;21.90;99.90;;;;;;5094449;28;20448;-50
2022/06/29 06:00:21;;;;;;;3.60;2.13;;;22.00;99.90;;;;;;5094333;28;20224;-47
2022/06/29 06:02:47;;;;;;;3.57;2.50;;;22.20;99.90;;;;;;5092188;28;20453;-46
2022/06/29 06:05:14;;;;;;;3.80;2.17;;;22.30;99.90;;;;;;5093921;28;20889;-51
2022/06/29 06:07:41;;;;;;;4.07;2.23;;;22.30;99.90;;;;;;5092936;28;20475;-49
2022/06/29 06:10:09;;;;;;;5.63;2.00;;;22.30;99.90;;;;;;5090895;28;20477;-46
2022/06/29 06:12:36;;;;;;;7.50;2.30;;;22.40;99.90;;;;;;5094371;28;20442;-44
2022/06/29 06:15:05;;;;;;;2.00;1.80;;;22.50;99.90;;;;;;5094442;28;20880;-50
2022/06/29 06:17:32;;;;;;;3.37;2.50;;;22.60;99.90;;;;;;5094947;28;20461;-49
2022/06/29 06:19:59;;;;;;;2.63;2.30;;;22.70;99.90;;;;;;5094763;28;20438;-55
2022/06/29 06:22:28;;;;;;;5.20;2.57;;;22.80;99.90;;;;;;5094620;28;20500;-44
2022/06/29 06:24:55;;;;;;;3.67;2.40;;;23.00;99.90;;;;;;5095001;28;20510;-53
2022/06/29 06:27:24;;;;;;;5.33;2.10;;;23.10;99.90;;;;;;5095767;28;20455;-54
2022/06/29 06:29:51;;;;;;;4.93;2.13;;;23.30;99.90;;;;;;5095208;28;20489;-52
2022/06/29 06:32:19;;;;;;;2.00;1.80;;;23.40;99.90;;;;;;5094206;28;20505;-52
2022/06/29 06:34:45;;;;;;;2.77;2.10;;;23.60;99.90;;;;;;5095132;28;20525;-49
2022/06/29 06:37:12;;;;;;;6.80;2.83;;;23.70;99.90;;;;;;5092209;28;20436;-55
2022/06/29 06:39:39;;;;;;;5.80;2.20;;;23.80;99.90;;;;;;5088820;28;20471;-53
2022/06/29 06:42:05;;;;;;;3.87;2.13;;;23.90;99.90;;;;;;5094397;28;20438;-48
2022/06/29 06:44:32;;;;;;;3.67;2.40;;;23.90;99.90;;;;;;5094426;28;20490;-45
2022/06/29 06:46:59;;;;;;;2.87;2.20;;;24.00;99.90;;;;;;5090360;28;20418;-47
2022/06/29 06:49:27;;;;;;;2.77;2.57;;;24.10;99.90;;;;;;5098523;28;20468;-50
2022/06/29 06:51:54;;;;;;;3.50;2.50;;;24.20;99.90;;;;;;5098317;28;20463;-50
2022/06/29 06:54:20;;;;;;;3.00;2.80;;;24.20;99.90;;;;;;5098079;28;20493;-40
2022/06/29 06:56:47;;;;;;;2.50;2.30;;;24.20;99.90;;;;;;5098960;28;20457;-46
2022/06/29 06:59:14;;;;;;;2.77;2.10;;;24.30;99.90;;;;;;5098110;28;20438;-48
2022/06/29 07:01:41;;;;;;;1.70;1.57;;;24.40;99.90;;;;;;5098598;28;20542;-41
2022/06/29 07:04:08;;;;;;;2.43;2.10;;;24.50;99.90;;;;;;5097942;28;20485;-53
2022/06/29 07:06:36;;;;;;;1.93;1.73;;;24.60;99.90;;;;;;5097018;28;20533;-56
2022/06/29 07:09:03;;;;;;;3.47;2.20;;;24.70;99.90;;;;;;5087914;28;20565;-54
2022/06/29 07:11:30;;;;;;;2.30;2.10;;;24.90;99.90;;;;;;5099398;28;20441;-49
2022/06/29 07:13:57;;;;;;;5.90;2.47;;;25.10;99.90;;;;;;5093454;28;20450;-55
2022/06/29 07:16:23;;;;;;;2.40;1.90;;;25.30;99.90;;;;;;5093998;28;20462;-47
2022/06/29 07:18:50;;;;;;;4.60;2.00;;;25.40;99.90;;;;;;5097936;28;20506;-49
2022/06/29 07:21:17;;;;;;;2.07;1.87;;;25.40;99.90;;;;;;5097393;28;20449;-48
2022/06/29 07:23:46;;;;;;;1.60;1.50;;;25.30;99.90;;;;;;5093668;28;20474;-57
2022/06/29 07:26:12;;;;;;;2.60;2.13;;;25.30;99.90;;;;;;5093239;28;20517;-44
2022/06/29 07:28:41;;;;;;;2.10;1.80;;;25.10;99.90;;;;;;5097303;28;20470;-50
2022/06/29 07:31:08;;;;;;;2.60;1.97;;;25.00;99.90;;;;;;5097148;28;20530;-49
2022/06/29 07:33:34;;;;;;;4.23;2.30;;;25.00;99.90;;;;;;5096683;28;20443;-44
2022/06/29 07:36:01;;;;;;;3.00;1.70;;;24.90;99.90;;;;;;5084905;28;20442;-51
2022/06/29 07:38:28;;;;;;;2.40;1.60;;;24.90;99.90;;;;;;5097667;28;20462;-46
2022/06/29 07:40:58;;;;;;;4.40;2.90;;;24.80;99.90;;;;;;5089631;28;20505;-50
2022/06/29 07:43:25;;;;;;;3.07;2.77;;;24.80;99.90;;;;;;5097661;28;20443;-51
2022/06/29 07:45:51;;;;;;;2.20;2.00;;;24.90;99.90;;;;;;5097071;28;21279;-46
2022/06/29 07:48:19;;;;;;;6.40;1.93;;;25.00;99.90;;;;;;5096991;28;20453;-44
2022/06/29 07:50:46;;;;;;;3.03;2.00;;;25.10;99.70;;;;;;5097597;28;20538;-55
2022/06/29 07:53:13;;;;;;;2.20;1.87;;;25.10;99.30;;;;;;5098386;28;20461;-50
2022/06/29 07:55:40;;;;;;;1.73;1.50;;;25.30;98.80;;;;;;5098016;28;20462;-53
2022/06/29 07:58:08;;;;;;;7.23;2.00;;;25.40;98.20;;;;;;5097989;28;20438;-52
2022/06/29 08:00:36;;;;;;;2.40;1.90;;;25.70;97.20;;;;;;5097707;28;20465;-51
2022/06/29 08:03:03;;;;;;;3.50;1.70;;;26.10;95.70;;;;;;5096615;28;20505;-47
2022/06/29 08:05:30;;;;;;;2.73;2.53;;;26.60;94.80;;;;;;5097680;28;20439;-49
2022/06/29 08:07:56;;;;;;;3.73;1.83;;;27.30;92.70;;;;;;5097191;28;20526;-54
2022/06/29 08:10:23;;;;;;;3.53;1.97;;;28.10;90.50;;;;;;5096653;28;20482;-51
2022/06/29 08:12:50;;;;;;;2.83;1.80;;;29.00;86.70;;;;;;5086471;28;20457;-55
2022/06/29 08:15:19;;;;;;;2.50;2.03;;;30.00;81.90;;;;;;5094902;28;20439;-53
2022/06/29 08:17:48;;;;;;;3.33;2.03;;;31.10;76.40;;;;;;5092619;28;20464;-47
2022/06/29 08:20:15;;;;;;;2.10;1.80;;;32.20;70.20;;;;;;5095555;28;20454;-47
2022/06/29 08:22:42;;;;;;;1.60;1.50;;;33.30;62.90;;;;;;5093179;28;20538;-52
2022/06/29 08:25:10;;;;;;;2.90;1.63;;;33.80;59.20;;;;;;5090219;28;20475;-52
2022/06/29 08:27:37;;;;;;;1.57;1.40;;;34.40;56.70;;;;;;5095223;28;20434;-50
2022/06/29 08:30:06;;;;;;;2.53;1.97;;;35.00;53.40;;;;;;5096266;28;20506;-47
2022/06/29 08:32:34;;;;;;;3.83;2.03;;;35.60;51.00;;;;;;5094804;28;20506;-50
2022/06/29 08:35:04;;;;;;;2.13;1.47;;;36.30;48.50;;;;;;5096978;28;20447;-47
2022/06/29 08:37:33;;;;;;;2.33;2.13;;;36.30;47.10;;;;;;5096650;28;20490;-48
2022/06/29 08:40:00;;;;;;;1.63;1.53;;;35.70;47.00;;;;;;5096178;28;20459;-46
2022/06/29 08:42:27;;;;;;;1.77;1.60;;;35.00;47.30;;;;;;5093629;28;20490;-38
2022/06/29 08:44:55;;;;;;;2.47;1.83;;;34.20;48.50;;;;;;5094770;28;20466;-55
2022/06/29 08:47:22;;;;;;;2.00;1.73;;;33.50;49.60;;;;;;5091881;28;20466;-57
2022/06/29 08:49:50;;;;;;;3.27;1.90;;;32.90;50.00;;;;;;5094941;28;20602;-57
2022/06/29 08:52:19;;;;;;;2.13;1.93;;;32.30;50.70;;;;;;5096828;28;20427;-45
2022/06/29 08:54:48;;;;;;;2.80;1.93;;;31.90;52.00;;;;;;5096501;28;20483;-48
2022/06/29 08:57:16;;;;;;;6.03;2.47;;;31.50;52.40;;;;;;5096498;28;20454;-49
2022/06/29 08:59:45;;;;;;;3.17;1.93;;;31.50;52.30;;;;;;5092702;28;20462;-56
2022/06/29 09:02:14;;;;;;;3.90;1.93;;;31.60;53.70;;;;;;5086616;28;20489;-58
2022/06/29 09:04:41;;;;;;;6.27;1.70;;;31.90;53.60;;;;;;5095671;28;20450;-47
2022/06/29 09:07:09;;;;;;;3.67;1.73;;;32.10;53.20;;;;;;5094066;28;20470;-49
2022/06/29 09:09:57;;;;;;;3.17;2.90;;;32.00;53.10;;;;;;5093714;28;20482;-49
2022/06/29 09:12:24;;;;;;;4.93;3.37;;;31.70;53.40;;;;;;5084616;28;20518;-55
2022/06/29 09:14:51;;;;;;;2.80;1.70;;;31.50;52.10;;;;;;5093541;28;20450;-48
2022/06/29 09:17:19;;;;;;;12.43;10.17;;;31.20;52.80;;;;;;5096429;28;20430;-43
2022/06/29 09:19:47;;;;;;;4.30;2.07;;;31.00;54.10;;;;;;5096078;28;20462;-52
2022/06/29 09:22:16;;;;;;;3.30;3.00;;;30.70;55.10;;;;;;5096159;28;20426;-49
2022/06/29 09:24:43;;;;;;;5.70;4.43;;;30.30;55.80;;;;;;5092908;28;20446;-47
2022/06/29 09:27:13;;;;;;;3.33;2.37;;;30.00;55.60;;;;;;5093739;28;20431;-50
2022/06/29 09:29:42;;;;;;;6.00;3.33;;;29.60;55.60;;;;;;5092517;28;20462;-53
2022/06/29 09:32:16;;;;;;;4.10;2.30;;;29.30;57.50;;;;;;5095621;28;20450;-50
2022/06/29 09:34:46;;;;;;;17.37;3.23;;;29.10;58.80;;;;;;5096039;28;20545;-54
2022/06/29 09:37:15;;;;;;;4.00;2.20;;;28.90;60.00;;;;;;5094293;28;20545;-49
2022/06/29 09:39:44;;;;;;;2.40;2.20;;;28.80;60.20;;;;;;5093014;28;20431;-54
2022/06/29 09:42:13;;;;;;;2.70;2.33;;;29.10;61.30;;;;;;5094138;28;20469;-60
2022/06/29 09:44:40;;;;;;;2.30;1.87;;;29.80;57.70;;;;;;5094556;28;20461;-55
2022/06/29 09:47:08;;;;;;;2.90;1.87;;;30.40;56.90;;;;;;5094258;28;20470;-52
2022/06/29 09:49:37;;;;;;;3.57;2.37;;;30.40;56.40;;;;;;5094002;28;20493;-57
2022/06/29 09:52:06;;;;;;;3.53;2.30;;;30.20;55.50;;;;;;5094675;28;20444;-47
2022/06/29 09:54:38;;;;;;;6.00;2.20;;;30.70;56.00;;;;;;5093596;28;20498;-49
2022/06/29 09:57:06;;;;;;;5.00;3.30;;;31.20;55.00;;;;;;5094155;28;20465;-53
2022/06/29 10:02:37;;;;;;;3.23;2.23;;;31.10;53.80;;;;;;5092127;28;20461;-50
2022/06/29 10:05:10;;;;;;;2.10;1.67;;;30.60;53.90;;;;;;5084136;28;20439;-49
2022/06/29 10:07:38;;;;;;;3.50;1.93;;;30.10;55.00;;;;;;5090798;28;20426;-44
2022/06/29 10:10:09;;;;;;;3.47;1.93;;;29.70;54.90;;;;;;5093242;28;20521;-49
2022/06/29 10:16:08;;;;;;;2.73;2.40;;;28.90;56.80;;;;;;5094562;28;20408;-57
2022/06/29 10:18:56;;;;;;;2.33;1.97;;;28.50;58.30;;;;;;5093376;28;20931;-53
2022/06/29 10:21:25;;;;;;;3.33;2.43;;;28.20;57.70;;;;;;5098489;28;20445;-50
2022/06/29 10:23:53;;;;;;;5.10;1.73;;;28.00;57.20;;;;;;5099340;28;20498;-50
2022/06/29 10:26:49;;;;;;;4.73;2.50;;;27.80;58.10;;;;;;5100259;28;20453;-48
2022/06/29 10:29:31;;;;;;;4.17;2.17;;;27.60;58.50;;;;;;5097198;28;20508;-45
2022/06/29 10:32:22;;;;;;;2.23;2.03;;;27.40;59.20;;;;;;5097661;28;20450;-56
2022/06/29 10:35:07;;;;;;;4.10;2.13;;;27.10;59.30;;;;;;5099763;28;20477;-53
2022/06/29 10:37:46;;;;;;;2.00;1.80;;;27.10;59.80;;;;;;5098597;28;20898;-51
2022/06/29 10:40:17;;;;;;;5.30;1.83;;;27.10;59.10;;;;;;5099642;28;20458;-47
2022/06/29 10:45:35;;;;;;;3.27;1.70;;;27.10;59.70;;;;;;5097944;28;20434;-47
2022/06/29 10:48:21;;;;;;;2.30;1.40;;;27.00;60.20;;;;;;5098396;28;20464;-44
2022/06/29 10:50:49;;;;;;;2.40;1.90;;;27.00;61.00;;;;;;5099477;28;20478;-49
2022/06/29 10:53:18;;;;;;;4.70;2.10;;;27.00;60.90;;;;;;5099634;28;20466;-49
2022/06/29 10:55:47;;;;;;;7.23;1.70;;;27.00;61.00;;;;;;5099807;28;20489;-43
2022/06/29 10:58:16;;;;;;;3.97;1.70;;;27.10;60.50;;;;;;5099319;28;20448;-54
2022/06/29 11:00:45;;;;;;;2.80;2.33;;;27.30;61.00;;;;;;5099140;28;20496;-48
2022/06/29 11:03:15;;;;;;;2.50;1.97;;;27.50;60.30;;;;;;5099763;28;20444;-46
2022/06/29 11:14:01;;;;;;;3.00;1.63;;;27.30;60.00;;;;;;5098019;28;20417;-52
2022/06/29 11:16:35;;;;;;;4.03;2.43;;;27.30;60.90;;;;;;5099240;28;20442;-58
2022/06/29 11:19:03;;;;;;;3.07;1.90;;;27.20;61.60;;;;;;5098724;28;20437;-48
2022/06/29 11:21:30;;;;;;;1.60;1.50;;;27.20;61.10;;;;;;5099656;28;20445;-53
2022/06/29 11:23:58;;;;;;;1.90;1.70;;;27.20;61.60;;;;;;5099567;28;20450;-51
2022/06/29 11:26:27;;;;;;;2.10;1.87;;;27.30;61.60;;;;;;5099124;28;20454;-51
2022/06/29 11:28:57;;;;;;;1.93;1.63;;;27.50;61.50;;;;;;5099128;28;20439;-54
2022/06/29 11:31:26;;;;;;;1.80;1.50;;;27.60;59.10;;;;;;5098491;28;20486;-53
2022/06/29 11:33:54;;;;;;;2.73;1.73;;;27.70;58.30;;;;;;5098842;28;20439;-50
2022/06/29 11:36:23;;;;;;;2.43;2.13;;;27.70;57.80;;;;;;5098293;28;20450;-45
2022/06/29 11:38:51;;;;;;;2.10;1.90;;;27.60;58.40;;;;;;5097017;28;20510;-52
2022/06/29 11:41:20;;;;;;;2.57;1.70;;;27.50;58.30;;;;;;5099028;28;20449;-51
2022/06/29 11:43:58;;;;;;;2.60;2.40;;;27.40;59.10;;;;;;5098012;28;20454;-57
2022/06/29 11:46:27;;;;;;;2.57;1.70;;;27.30;59.00;;;;;;5098168;28;20473;-51
2022/06/29 11:51:51;;;;;;;5.00;2.07;;;27.50;59.20;;;;;;5096982;28;20496;-62
2022/06/29 11:54:18;;;;;;;3.03;2.73;;;27.70;58.90;;;;;;5092666;28;20426;-51
2022/06/29 11:56:46;;;;;;;4.40;2.70;;;27.90;58.40;;;;;;5096566;28;20446;-55
2022/06/29 11:59:16;;;;;;;2.67;1.87;;;28.00;58.10;;;;;;5098171;28;20438;-58
2022/06/29 12:01:53;;;;;;;3.80;2.23;;;28.20;58.20;;;;;;5097573;28;20433;-51
2022/06/29 12:04:28;;;;;;;9.00;2.00;;;28.20;57.80;;;;;;5097857;28;20437;-47
2022/06/29 12:07:05;;;;;;;2.83;2.00;;;28.20;57.50;;;;;;5098526;28;20481;-55
2022/06/29 12:09:33;;;;;;;4.80;2.07;;;28.30;56.40;;;;;;5098146;28;20438;-53
2022/06/29 12:12:00;;;;;;;3.70;2.03;;;28.40;55.90;;;;;;5097249;28;20507;-56
2022/06/29 12:14:27;;;;;;;4.30;2.20;;;28.60;54.30;;;;;;5097430;28;20458;-50
2022/06/29 12:16:55;;;;;;;2.60;1.60;;;28.60;54.50;;;;;;5096963;28;20534;-48
2022/06/29 12:19:22;;;;;;;3.60;2.60;;;28.60;54.50;;;;;;5095765;28;20430;-44
2022/06/29 12:21:49;;;;;;;5.10;2.20;;;28.50;55.60;;;;;;5097702;28;20446;-47
2022/06/29 12:24:16;;;;;;;6.20;2.90;;;28.50;55.80;;;;;;5089677;28;20450;-58
2022/06/29 12:26:44;;;;;;;6.80;2.43;;;28.40;55.50;;;;;;5095225;28;20494;-55
2022/06/29 12:29:13;;;;;;;3.90;2.30;;;28.40;54.50;;;;;;5096859;28;20430;-49
2022/06/29 12:31:41;;;;;;;2.33;1.93;;;28.40;55.30;;;;;;5095281;28;20496;-54
2022/06/29 12:34:10;;;;;;;4.70;2.17;;;28.40;56.00;;;;;;5097129;28;20446;-54
2022/06/29 12:36:37;;;;;;;2.90;2.10;;;28.40;56.60;;;;;;5095984;28;20481;-51
2022/06/29 12:39:05;;;;;;;4.23;1.80;;;28.50;56.70;;;;;;5096637;28;20474;-53
2022/06/29 12:41:33;;;;;;;3.50;1.90;;;28.40;55.50;;;;;;5095344;28;20491;-48
2022/06/29 12:44:02;;;;;;;6.63;1.50;;;28.40;55.40;;;;;;5096476;28;20457;-53
2022/06/29 12:46:29;;;;;;;3.07;1.77;;;28.40;55.90;;;;;;5094190;28;20514;-55
2022/06/29 12:48:56;;;;;;;5.17;1.90;;;28.20;55.20;;;;;;5097266;28;20434;-51
2022/06/29 12:51:28;;;;;;;5.50;2.10;;;28.10;54.70;;;;;;5083452;28;20486;-54
2022/06/29 12:53:55;;;;;;;2.37;2.17;;;28.00;55.90;;;;;;5095905;28;20445;-46
2022/06/29 12:56:22;;;;;;;4.27;2.20;;;28.20;54.80;;;;;;5096089;28;20447;-50
2022/06/29 12:58:49;;;;;;;1.50;1.40;;;28.30;55.10;;;;;;5094999;28;20802;-54
2022/06/29 13:01:16;;;;;;;2.83;1.87;;;28.40;54.20;;;;;;5096133;28;20447;-51
2022/06/29 13:03:43;;;;;;;2.33;1.70;;;28.50;54.30;;;;;;5096358;28;20486;-55
2022/06/29 13:06:10;;;;;;;3.37;1.67;;;28.70;53.70;;;;;;5094948;28;20469;-59
2022/06/29 13:08:38;;;;;;;2.40;1.80;;;28.70;54.30;;;;;;5095891;28;20426;-54
2022/06/29 13:11:05;;;;;;;2.13;1.90;;;28.90;54.70;;;;;;5095662;28;20521;-52
2022/06/29 13:13:32;;;;;;;2.83;2.03;;;28.90;53.70;;;;;;5095711;28;20441;-45
2022/06/29 13:15:59;;;;;;;6.30;2.70;;;28.90;53.90;;;;;;5092235;28;20439;-52
2022/06/29 13:18:26;;;;;;;3.00;1.77;;;28.90;53.60;;;;;;5083691;28;20427;-51